Maple Ridge, Minnesota
Current Conditions -  °F | °C
As of 3:32 AM on Thursday 27 Nov 2014 (Local Time) from KBJI Reporting Station
Clear Clear  
Wind Chill: -16°   Ceiling: Unl
Heat Index: -16°   Visibility: 7mi
Dew Point: -20°   Wind: 3mph
Humidity: 79%   Direction: 270°W
Pressure: 30.46"   Gusts: NA
Location:  47.7369°N, 94.9947°W
Report Text: KBJI 270932Z AUTO 27003KT 7SM CLR M26/M29 A3046 RMK AO2 T12651291
Loading
Personal Weather Stations






























Interactive Weather Map New forecast layout! Learn more

10-Day Weather Forecast

Advertisements
Track Severe Weather on mobile